Fairbanks, Alaska
Current Conditions -  °F | °C
As of 4:56 AM on Monday 22 Dec 2014 (Local Time) from PAFB Reporting Station
Clear Clear  
Wind Chill: -10°   Ceiling: Unl
Heat Index: -10°   Visibility: 10mi
Dew Point: -16°   Wind: 0mph
Humidity: 74%   Direction: NA
Pressure: 29.74"   Gusts: NA
Location:  64.85°N, 147.72°W
Report Text: PAFB 221356Z AUTO 00000KT 10SM CLR M23/M27 A2974 RMK SLP088 T12331267 VIA AUTODIAL
Loading
Personal Weather Stations






























Interactive Weather Map New forecast layout! Learn more

10-Day Weather Forecast

Advertisements
Track Severe Weather on mobile